Visit the IPS Meteostar Home Page IPSM Red Wing Municipal Airport FORECAST

Miesville, Minnesota

43

52

45

60

60

48

45

50

32
32
32
45
38
28
28

16 miles away at Red Wing Municipal Airport 9:36 GMT

Weather:

Partly Cloudy

Wind:

WSW 10 mph

Temperature:

43 ° F

Pressure:

30.00

Dew Point:

25 ° F

Relative Humidity:

47

Feels Like:

37 ° F

Visibility:

10 miles


Aviation Observations:

KRGK 160936Z AUTO 25009KT 10SM SCT120 06/M04 A2996 RMK AO2 =

National Weather Service Forecast:
Dakota

dakota- including the city of hastings
331 AM CDT TUE OCT 16 2018

TODAY

Mostly sunny. Highs in the lower 50s. West winds 10 to 15 mph with gusts to around 30 mph.

TONIGHT

Mostly clear. Lows in the lower 30s. Northwest winds 10 to 15 mph.

WEDNESDAY

Sunny. Highs in the mid 40s. Northwest winds 10 to 15 mph.

WEDNESDAY NIGHT

Clear. Lows in the lower 30s. Southwest winds around 5 mph.

THURSDAY

Warmer, sunny. Highs around 60. Southwest winds 10 to 15 mph.

THURSDAY NIGHT

Not as cool. Mostly clear. A 30 percent chance of rain after midnight. Lows in the mid 40s.

FRIDAY

Partly cloudy. Highs around 60.

FRIDAY NIGHT

Mostly clear. Lows in the upper 30s.

SATURDAY

Cooler. Mostly sunny. A 20 percent chance of rain in the afternoon. Highs in the upper 40s.

SATURDAY NIGHT

Colder. Mostly clear. Lows in the upper 20s.

SUNDAY AND SUNDAY NIGHT

Partly cloudy. Highs in the mid 40s. lows in the mid 30s.

MONDAY

Sunny. Highs around 50.


Visit the IPS Meteostar Home Page